Azusa, California
Current Conditions -  °F | °C
As of 4:47 PM on Tuesday 27 Jan 2015 (Local Time) from KPOC Reporting Station
Clear Clear  
Wind Chill: 64°   Ceiling: Unl
Heat Index: 64°   Visibility: 10mi
Dew Point: 46°   Wind: 5mph
Humidity: 52%   Direction: NA
Pressure: 30.17"   Gusts: NA
Location:  34.13°N, 117.9°W
Report Text: KPOC 280047Z VRB04KT 10SM CLR 18/08 A3017
Loading
Personal Weather Stations






























Interactive Weather Map New forecast layout! Learn more

10-Day Weather Forecast

Advertisements
Track Severe Weather on mobile